Time,TemperatureF,DewpointF,PressureIn,WindDirection,WindDirectionDegrees,WindSpeedMPH,WindSpeedGustMPH,Humidity,HourlyPrecipIn,Conditions,Clouds,dailyrainin,SoftwareType,DateUTC
2013-05-30 04:02:00,61.0,57.0,-100.00,South,185,2.0,6.0,87,-99.99,,,-99.99,,2013-05-30 08:02:00,
2013-05-30 05:22:00,59.0,57.0,-100.00,South,185,3.0,7.0,93,-99.99,,,-99.99,,2013-05-30 09:22:00,
2013-05-30 05:33:00,58.0,56.0,-100.00,South,190,2.0,7.0,93,-99.99,,,-99.99,,2013-05-30 09:33:00,
2013-05-30 05:43:00,57.0,56.0,-100.00,SW,220,2.0,5.0,96,-99.99,,,-99.99,,2013-05-30 09:43:00,
2013-05-30 05:53:00,57.0,56.0,-100.00,SW,225,2.0,5.0,98,-99.99,,,-99.99,,2013-05-30 09:53:00,
2013-05-30 06:13:00,54.0,53.0,-100.00,South,190,0.0,2.0,94,-99.99,,,-99.99,,2013-05-30 10:13:00,
2013-05-30 07:03:00,55.0,54.0,-100.00,South,190,1.0,5.0,98,-99.99,,,-99.99,,2013-05-30 11:03:00,
2013-05-30 07:12:00,56.0,54.0,-100.00,South,190,3.0,7.0,93,-99.99,,,-99.99,,2013-05-30 11:12:00,
2013-05-30 07:22:00,56.0,55.0,-100.00,SSW,200,5.0,9.0,97,-99.99,,,-99.99,,2013-05-30 11:22:00,
2013-05-30 07:32:00,57.0,56.0,-100.00,SSW,200,6.0,12.0,96,-99.99,,,-99.99,,2013-05-30 11:32:00,
2013-05-30 07:42:00,57.0,56.0,-100.00,SSW,200,6.0,12.0,96,-99.99,,,-99.99,,2013-05-30 11:42:00,
2013-05-30 08:11:00,57.0,56.0,-100.00,South,175,6.0,12.0,96,-99.99,,,-99.99,,2013-05-30 12:11:00,
2013-05-30 08:42:00,62.0,62.0,-100.00,South,190,7.0,13.0,100,-99.99,,,-99.99,,2013-05-30 12:42:00,
2013-05-30 08:52:00,62.0,61.0,-100.00,SSE,165,5.0,12.0,95,-99.99,,,-99.99,,2013-05-30 12:52:00,
2013-05-30 09:01:00,62.0,58.0,-100.00,South,190,6.0,13.0,86,-99.99,,,-99.99,,2013-05-30 13:01:00,
2013-05-30 09:11:00,62.0,56.0,-100.00,SSW,200,7.0,15.0,82,-99.99,,,-99.99,,2013-05-30 13:11:00,
2013-05-30 09:22:00,62.0,55.0,-100.00,South,170,6.0,13.0,79,-99.99,,,-99.99,,2013-05-30 13:22:00,
2013-05-30 09:32:00,68.0,61.0,-100.00,SSW,205,7.0,17.0,77,-99.99,,,-99.99,,2013-05-30 13:32:00,
2013-05-30 09:42:00,68.0,60.0,-100.00,SSW,195,6.0,16.0,76,-99.99,,,-99.99,,2013-05-30 13:42:00,
2013-05-30 09:52:00,68.0,59.0,-100.00,South,180,6.0,15.0,73,-99.99,,,-99.99,,2013-05-30 13:52:00,
2013-05-30 10:02:00,68.0,59.0,-100.00,South,180,6.0,15.0,73,-99.99,,,-99.99,,2013-05-30 14:02:00,
2013-05-30 10:12:00,68.0,58.0,-100.00,SSW,200,8.0,15.0,71,-99.99,,,-99.99,,2013-05-30 14:12:00,
2013-05-30 10:22:00,68.0,58.0,-100.00,South,190,8.0,17.0,71,-99.99,,,-99.99,,2013-05-30 14:22:00,
2013-05-30 10:32:00,71.0,60.0,-100.00,SW,215,8.0,17.0,69,-99.99,,,-99.99,,2013-05-30 14:32:00,
2013-05-30 10:42:00,71.0,60.0,-100.00,SW,215,8.0,17.0,69,-99.99,,,-99.99,,2013-05-30 14:42:00,
2013-05-30 11:33:00,75.0,60.0,-100.00,SW,225,6.0,23.0,59,-99.99,,,-99.99,,2013-05-30 15:33:00,
2013-05-30 11:42:00,75.0,60.0,-100.00,SW,225,6.0,23.0,59,-99.99,,,-99.99,,2013-05-30 15:42:00,
2013-05-30 11:52:00,75.0,59.0,-100.00,SSW,200,9.0,16.0,58,-99.99,,,-99.99,,2013-05-30 15:52:00,
2013-05-30 12:03:00,75.0,59.0,-100.00,SSW,200,9.0,16.0,58,-99.99,,,-99.99,,2013-05-30 16:03:00,
2013-05-30 12:13:00,75.0,59.0,-100.00,WSW,240,13.0,23.0,58,-99.99,,,-99.99,,2013-05-30 16:13:00,
2013-05-30 12:23:00,75.0,59.0,-100.00,WSW,240,13.0,23.0,58,-99.99,,,-99.99,,2013-05-30 16:23:00,
2013-05-30 12:33:00,75.0,58.0,-100.00,SW,215,9.0,22.0,56,-99.99,,,-99.99,,2013-05-30 16:33:00,
2013-05-30 12:42:00,75.0,58.0,-100.00,SW,215,9.0,22.0,56,-99.99,,,-99.99,,2013-05-30 16:42:00,
2013-05-30 12:52:00,75.0,58.0,-100.00,WSW,255,8.0,17.0,55,-99.99,,,-99.99,,2013-05-30 16:52:00,
2013-05-30 13:03:00,75.0,58.0,-100.00,WSW,255,8.0,17.0,55,-99.99,,,-99.99,,2013-05-30 17:03:00,
2013-05-30 13:12:00,75.0,57.0,-100.00,SSW,205,5.0,17.0,54,-99.99,,,-99.99,,2013-05-30 17:12:00,
2013-05-30 13:22:00,75.0,57.0,-100.00,West,265,10.0,17.0,54,-99.99,,,-99.99,,2013-05-30 17:22:00,
2013-05-30 13:32:00,75.0,56.0,-100.00,SSW,200,9.0,20.0,52,-99.99,,,-99.99,,2013-05-30 17:32:00,
2013-05-30 13:42:00,75.0,56.0,-100.00,SSW,200,9.0,20.0,52,-99.99,,,-99.99,,2013-05-30 17:42:00,
2013-05-30 13:52:00,75.0,56.0,-100.00,SW,225,8.0,20.0,52,-99.99,,,-99.99,,2013-05-30 17:52:00,
2013-05-30 14:02:00,75.0,57.0,-100.00,WSW,255,8.0,16.0,53,-99.99,,,-99.99,,2013-05-30 18:02:00,
2013-05-30 14:11:00,75.0,55.0,-100.00,SW,225,7.0,15.0,49,-99.99,,,-99.99,,2013-05-30 18:11:00,
2013-05-30 14:22:00,75.0,55.0,-100.00,SW,225,7.0,15.0,49,-99.99,,,-99.99,,2013-05-30 18:22:00,
2013-05-30 14:32:00,74.0,54.0,-100.00,WSW,245,10.0,18.0,49,-99.99,,,-99.99,,2013-05-30 18:32:00,
2013-05-30 14:43:00,74.0,54.0,-100.00,WSW,245,10.0,18.0,49,-99.99,,,-99.99,,2013-05-30 18:43:00,
2013-05-30 14:52:00,74.0,53.0,-100.00,SW,220,10.0,21.0,48,-99.99,,,-99.99,,2013-05-30 18:52:00,
2013-05-30 15:02:00,74.0,64.0,-100.00,NW,305,7.0,23.0,70,-99.99,,,-99.99,,2013-05-30 19:02:00,
2013-05-30 15:12:00,74.0,64.0,-100.00,NW,305,8.0,14.0,70,-99.99,,,-99.99,,2013-05-30 19:12:00,
2013-05-30 15:23:00,74.0,64.0,-100.00,NW,305,8.0,14.0,70,-99.99,,,-99.99,,2013-05-30 19:23:00,
2013-05-30 15:32:00,69.0,59.0,-100.00,NW,320,7.0,10.0,70,-99.99,,,-99.99,,2013-05-30 19:32:00,
2013-05-30 15:42:00,69.0,59.0,-100.00,NW,320,7.0,10.0,70,-99.99,,,-99.99,,2013-05-30 19:42:00,
2013-05-30 15:52:00,64.0,56.0,-100.00,NE,55,6.0,10.0,75,-99.99,,,-99.99,,2013-05-30 19:52:00,
2013-05-30 16:02:00,64.0,56.0,-100.00,NE,55,6.0,10.0,75,-99.99,,,-99.99,,2013-05-30 20:02:00,
2013-05-30 16:11:00,66.0,59.0,-100.00,NE,40,5.0,10.0,76,-99.99,,,-99.99,,2013-05-30 20:11:00,
2013-05-30 16:23:00,69.0,61.0,-100.00,NE,55,3.0,9.0,76,-99.99,,,-99.99,,2013-05-30 20:23:00,
2013-05-30 16:33:00,68.0,61.0,-100.00,NNW,330,2.0,6.0,78,-99.99,,,-99.99,,2013-05-30 20:33:00,
2013-05-30 16:42:00,68.0,61.0,-100.00,NNW,330,2.0,6.0,78,-99.99,,,-99.99,,2013-05-30 20:42:00,
2013-05-30 16:52:00,69.0,62.0,-100.00,North,10,3.0,6.0,80,-99.99,,,-99.99,,2013-05-30 20:52:00,
2013-05-30 17:00:00,69.0,61.0,-100.00,NE,55,9.0,12.0,76,-99.99,,,-99.99,,2013-05-30 21:00:00,
2013-05-30 17:01:00,69.0,62.0,-100.00,NNE,15,3.0,5.0,80,-99.99,,,-99.99,,2013-05-30 21:01:00,
2013-05-30 17:11:00,69.0,62.0,-100.00,NNE,30,1.0,6.0,79,-99.99,,,-99.99,,2013-05-30 21:11:00,
2013-05-30 17:22:00,69.0,62.0,-100.00,NNE,30,1.0,6.0,79,-99.99,,,-99.99,,2013-05-30 21:22:00,
2013-05-30 17:33:00,69.0,61.0,-100.00,NE,55,9.0,12.0,76,-99.99,,,-99.99,,2013-05-30 21:33:00,
2013-05-30 17:43:00,69.0,61.0,-100.00,NE,55,9.0,12.0,76,-99.99,,,-99.99,,2013-05-30 21:43:00,
2013-05-30 17:53:00,69.0,61.0,-100.00,NE,55,9.0,12.0,76,-99.99,,,-99.99,,2013-05-30 21:53:00,
2013-05-30 18:12:00,71.0,62.0,-100.00,ENE,60,8.0,14.0,73,-99.99,,,-99.99,,2013-05-30 22:12:00,
2013-05-30 18:23:00,71.0,63.0,-100.00,NNE,15,6.0,15.0,75,-99.99,,,-99.99,,2013-05-30 22:23:00,
2013-05-30 18:33:00,70.0,59.0,-100.00,NNE,25,8.0,13.0,69,-99.99,,,-99.99,,2013-05-30 22:33:00,
2013-05-30 18:42:00,70.0,59.0,-100.00,NNE,25,8.0,13.0,69,-99.99,,,-99.99,,2013-05-30 22:42:00,
2013-05-30 18:52:00,73.0,64.0,-100.00,ENE,60,5.0,13.0,73,-99.99,,,-99.99,,2013-05-30 22:52:00,
2013-05-30 19:02:00,73.0,64.0,-100.00,ENE,60,5.0,13.0,73,-99.99,,,-99.99,,2013-05-30 23:02:00,
2013-05-30 19:12:00,71.0,63.0,-100.00,NE,50,6.0,10.0,75,-99.99,,,-99.99,,2013-05-30 23:12:00,
2013-05-30 19:32:00,69.0,62.0,-100.00,NNW,330,3.0,7.0,77,-99.99,,,-99.99,,2013-05-30 23:32:00,
2013-05-30 19:42:00,69.0,62.0,-100.00,NNW,330,3.0,7.0,77,-99.99,,,-99.99,,2013-05-30 23:42:00,
2013-05-30 19:52:00,76.0,64.0,-100.00,North,350,1.0,3.0,68,-99.99,,,-99.99,,2013-05-30 23:52:00,
2013-05-30 20:01:00,76.0,64.0,-100.00,North,350,1.0,3.0,68,-99.99,,,-99.99,,2013-05-31 00:01:00,
2013-05-30 20:11:00,80.0,69.0,-100.00,SSE,165,6.0,13.0,69,-99.99,,,-99.99,,2013-05-31 00:11:00,
2013-05-30 20:32:00,80.0,68.0,-100.00,South,170,9.0,21.0,67,-99.99,,,-99.99,,2013-05-31 00:32:00,
2013-05-30 20:42:00,80.0,68.0,-100.00,South,170,9.0,21.0,67,-99.99,,,-99.99,,2013-05-31 00:42:00,
2013-05-30 20:52:00,78.0,67.0,-100.00,South,170,6.0,13.0,70,-99.99,,,-99.99,,2013-05-31 00:52:00,
2013-05-30 21:01:00,78.0,67.0,-100.00,South,170,6.0,13.0,70,-99.99,,,-99.99,,2013-05-31 01:01:00,
2013-05-30 21:12:00,77.0,67.0,-100.00,South,170,5.0,10.0,72,-99.99,,,-99.99,,2013-05-31 01:12:00,
2013-05-30 21:21:00,76.0,67.0,-100.00,SSE,165,3.0,10.0,73,-99.99,,,-99.99,,2013-05-31 01:21:00,
2013-05-30 21:32:00,75.0,67.0,-100.00,SSE,155,3.0,9.0,76,-99.99,,,-99.99,,2013-05-31 01:32:00,
2013-05-30 21:42:00,75.0,67.0,-100.00,SSE,155,3.0,9.0,76,-99.99,,,-99.99,,2013-05-31 01:42:00,
2013-05-30 21:52:00,74.0,68.0,-100.00,SSE,165,5.0,10.0,80,-99.99,,,-99.99,,2013-05-31 01:52:00,
2013-05-30 22:02:00,74.0,68.0,-100.00,SSE,165,5.0,10.0,80,-99.99,,,-99.99,,2013-05-31 02:02:00,
2013-05-30 22:11:00,74.0,68.0,-100.00,SSE,165,5.0,12.0,81,-99.99,,,-99.99,,2013-05-31 02:11:00,
2013-05-30 22:22:00,74.0,68.0,-100.00,SSE,165,5.0,12.0,81,-99.99,,,-99.99,,2013-05-31 02:22:00,
2013-05-30 22:32:00,75.0,68.0,-100.00,South,190,6.0,14.0,80,-99.99,,,-99.99,,2013-05-31 02:32:00,
2013-05-30 22:42:00,75.0,68.0,-100.00,South,190,6.0,14.0,80,-99.99,,,-99.99,,2013-05-31 02:42:00,